Time;durP1;ratioP1;P1;durP2;ratioP2;P2;SDS_P1;SDS_P2;PMS_P1;PMS_P2;Temp;Humidity;BMP_temperature;BMP_pressure;BME280_temperature;BME280_humidity;BME280_pressure;Samples;Min_cycle;Max_cycle;Signal;HPM_P1;HPM_P2
2023/05/27 00:00:50;;;;;;;167.10;65.70;;;;;;;17.81;49.21;102786.31;5011223;28;20041;-68
2023/05/27 00:03:16;;;;;;;166.90;65.25;;;;;;;17.82;49.28;102784.53;5010085;28;20479;-69
2023/05/27 00:05:41;;;;;;;166.30;63.80;;;;;;;17.81;48.49;102780.16;5006526;28;20520;-70
2023/05/27 00:08:06;;;;;;;171.35;65.22;;;;;;;17.80;48.74;102789.84;5007629;28;20022;-68
2023/05/27 00:10:32;;;;;;;161.50;64.85;;;;;;;17.79;48.97;102788.09;5013546;28;20519;-70
2023/05/27 00:12:57;;;;;;;167.68;64.05;;;;;;;17.79;49.04;102797.81;5022817;28;20057;-69
2023/05/27 00:15:22;;;;;;;167.07;64.65;;;;;;;17.79;48.68;102789.88;5022252;28;20021;-69
2023/05/27 00:17:49;;;;;;;177.38;80.30;;;;;;;17.78;49.00;102790.75;5029647;28;20028;-69
2023/05/27 00:20:15;;;;;;;161.25;62.90;;;;;;;17.77;49.42;102795.19;5035252;28;20021;-70
2023/05/27 00:22:41;;;;;;;165.02;68.32;;;;;;;17.77;48.59;102792.53;5031220;28;20026;-69
2023/05/27 00:25:07;;;;;;;169.80;64.93;;;;;;;17.77;48.60;102789.03;5019254;28;20498;-71
2023/05/27 00:27:32;;;;;;;167.05;63.55;;;;;;;17.75;48.75;102789.03;5017981;28;20042;-69
2023/05/27 00:29:58;;;;;;;170.18;63.55;;;;;;;17.75;48.67;102791.66;5020262;28;20033;-69
2023/05/27 00:32:23;;;;;;;167.05;62.47;;;;;;;17.74;49.13;102796.09;5022359;28;20025;-68
2023/05/27 00:34:48;;;;;;;171.68;64.40;;;;;;;17.73;49.14;102791.69;5018870;28;20042;-68
2023/05/27 00:37:14;;;;;;;168.57;63.65;;;;;;;17.72;48.68;102787.31;5019992;28;20457;-69
2023/05/27 00:39:40;;;;;;;167.57;62.70;;;;;;;17.71;49.01;102788.22;5019935;28;20530;-69
2023/05/27 00:42:07;;;;;;;166.98;63.03;;;;;;;17.72;49.30;102782.03;5022393;28;20548;-69
2023/05/27 00:44:32;;;;;;;183.18;66.20;;;;;;;17.71;49.17;102777.63;5018264;28;20506;-69
2023/05/27 00:46:58;;;;;;;177.48;64.90;;;;;;;17.70;49.18;102778.53;5012910;28;20021;-70
2023/05/27 00:49:25;;;;;;;193.65;68.60;;;;;;;17.71;48.89;102774.09;5014184;28;20051;-70
2023/05/27 00:51:50;;;;;;;173.13;63.42;;;;;;;17.68;48.92;102777.69;5013688;28;20026;-70
2023/05/27 00:54:16;;;;;;;186.60;66.35;;;;;;;17.69;48.89;102782.06;5027713;28;20022;-71
2023/05/27 00:56:41;;;;;;;174.35;63.35;;;;;;;17.70;48.99;102788.25;5016493;28;20065;-72
2023/05/27 00:59:07;;;;;;;179.90;65.80;;;;;;;17.70;48.75;102780.31;5018378;28;20017;-69
2023/05/27 01:01:33;;;;;;;171.70;67.15;;;;;;;17.75;48.79;102781.09;5019414;28;20025;-72
2023/05/27 01:03:59;;;;;;;182.85;74.53;;;;;;;17.81;48.74;102774.88;5012982;28;20491;-71
2023/05/27 01:06:49;;;;;;;180.52;76.50;;;;;;;17.82;48.92;102790.72;5014087;28;20025;-71
2023/05/27 01:09:39;;;;;;;201.20;78.70;;;;;;;17.83;49.18;102781.00;5014685;28;20566;-71
2023/05/27 01:12:42;;;;;;;198.73;79.07;;;;;;;17.82;48.39;102788.06;5008989;28;20507;-72
2023/05/27 01:15:08;;;;;;;167.25;70.13;;;;;;;17.80;48.72;102788.97;5015761;28;20048;-71
2023/05/27 01:17:37;;;;;;;180.80;82.10;;;;;;;17.79;48.41;102788.09;5018999;28;20025;-71
2023/05/27 01:20:05;;;;;;;184.68;79.10;;;;;;;17.78;48.92;102790.75;4998921;28;20116;-70
2023/05/27 01:22:31;;;;;;;179.65;78.72;;;;;;;17.76;48.70;102790.78;5014337;28;20018;-71
2023/05/27 01:24:57;;;;;;;172.93;70.43;;;;;;;17.75;49.42;102796.97;5007780;28;20021;-73
2023/05/27 01:27:24;;;;;;;178.23;78.32;;;;;;;17.74;48.49;102788.16;5000764;28;20030;-71
2023/05/27 01:29:50;;;;;;;181.77;78.53;;;;;;;17.74;48.90;102782.88;5015022;28;20113;-70
2023/05/27 01:32:30;;;;;;;183.25;76.88;;;;;;;17.74;48.71;102793.44;5019358;28;20025;-72
2023/05/27 01:35:11;;;;;;;180.43;69.88;;;;;;;17.73;49.03;102789.06;5014814;28;20029;-72
2023/05/27 01:37:38;;;;;;;203.30;76.10;;;;;;;17.74;49.47;102780.25;5009571;28;20117;-71
2023/05/27 01:40:06;;;;;;;192.52;80.82;;;;;;;17.78;49.55;102781.09;5030095;28;20022;-71
2023/05/27 01:42:33;;;;;;;171.45;81.45;;;;;;;17.80;50.72;102792.50;5009974;28;20022;-73
2023/05/27 01:45:00;;;;;;;171.30;78.68;;;;;;;17.77;50.34;102789.03;5014199;28;20505;-74
2023/05/27 01:47:25;;;;;;;181.45;78.07;;;;;;;17.77;49.83;102767.88;5015497;28;20029;-75
2023/05/27 01:49:51;;;;;;;166.85;69.60;;;;;;;17.79;50.44;102766.09;5014904;28;20075;-76
2023/05/27 01:52:16;;;;;;;170.93;78.78;;;;;;;17.77;50.94;102775.81;5017708;28;20108;-73
2023/05/27 01:54:41;;;;;;;165.18;80.25;;;;;;;17.79;51.53;102774.88;5013007;28;20106;-74
2023/05/27 01:57:07;;;;;;;170.70;77.60;;;;;;;17.80;51.45;102774.00;5016636;28;20029;-74
2023/05/27 01:59:32;;;;;;;169.27;81.05;;;;;;;17.82;51.10;102766.94;5018834;28;20044;-75
2023/05/27 02:01:57;;;;;;;162.65;74.03;;;;;;;17.81;51.35;102766.94;5020084;28;20497;-75
2023/05/27 02:04:23;;;;;;;168.32;75.78;;;;;;;17.80;50.68;102762.56;5018551;28;20037;-75
2023/05/27 02:06:48;;;;;;;165.45;72.20;;;;;;;17.78;51.37;102759.03;5017777;28;20030;-75
2023/05/27 02:09:14;;;;;;;163.70;73.97;;;;;;;17.78;51.14;102759.03;5018752;28;20017;-74
2023/05/27 02:11:39;;;;;;;166.40;85.78;;;;;;;17.76;51.10;102756.41;5021773;28;20037;-76
2023/05/27 02:14:07;;;;;;;176.65;74.50;;;;;;;17.76;51.24;102766.13;5023237;28;20506;-73
2023/05/27 02:16:33;;;;;;;155.93;68.80;;;;;;;17.76;51.12;102758.19;5022821;28;20463;-73
2023/05/27 02:19:00;;;;;;;149.00;61.35;;;;;;;17.73;51.67;102757.34;4995749;28;20041;-74
2023/05/27 02:21:26;;;;;;;171.13;80.53;;;;;;;17.72;51.15;102747.69;5013088;28;20052;-74
2023/05/27 02:23:51;;;;;;;169.50;66.72;;;;;;;17.72;51.49;102750.31;5028851;28;20037;-74
2023/05/27 02:26:17;;;;;;;159.05;74.65;;;;;;;17.71;51.69;102758.25;5014298;28;20379;-74
2023/05/27 02:28:42;;;;;;;155.35;65.00;;;;;;;17.71;51.74;102764.44;5030609;28;20090;-74
2023/05/27 02:31:08;;;;;;;157.43;73.90;;;;;;;17.71;51.94;102769.72;5022727;28;20033;-75
2023/05/27 02:33:33;;;;;;;174.30;81.35;;;;;;;17.70;51.71;102760.03;5013716;28;20384;-75
2023/05/27 02:35:59;;;;;;;169.48;82.10;;;;;;;17.70;51.79;102756.53;5018236;28;20128;-76
2023/05/27 02:38:25;;;;;;;158.18;69.75;;;;;;;17.70;51.70;102761.81;5031076;28;20021;-75
2023/05/27 02:40:50;;;;;;;157.05;67.70;;;;;;;17.70;52.09;102762.66;5011021;28;20045;-76
2023/05/27 02:43:16;;;;;;;157.57;67.93;;;;;;;17.71;51.62;102755.59;5028851;28;20052;-75
2023/05/27 02:45:41;;;;;;;169.30;68.85;;;;;;;17.70;51.82;102752.09;5018114;28;20522;-76
2023/05/27 02:48:07;;;;;;;154.07;65.07;;;;;;;17.70;52.30;102757.38;5019206;28;20022;-75
2023/05/27 02:50:33;;;;;;;158.27;66.38;;;;;;;17.70;52.13;102770.59;5016616;28;20025;-74
2023/05/27 02:52:58;;;;;;;165.52;68.22;;;;;;;17.69;51.93;102762.69;5029168;28;20049;-75
2023/05/27 02:55:23;;;;;;;175.07;69.93;;;;;;;17.68;52.58;102760.94;5017236;28;20502;-75
2023/05/27 02:57:49;;;;;;;156.23;67.22;;;;;;;17.66;52.57;102760.09;5014325;28;20025;-76
2023/05/27 03:00:14;;;;;;;160.50;71.03;;;;;;;17.67;52.67;102768.00;5028923;28;20025;-75
2023/05/27 03:02:40;;;;;;;159.23;63.72;;;;;;;17.67;52.40;102769.75;4997394;28;20029;-77
2023/05/27 03:05:06;;;;;;;164.70;69.13;;;;;;;17.67;52.14;102764.47;5027730;28;20026;-76
2023/05/27 03:07:31;;;;;;;154.50;63.17;;;;;;;17.66;52.57;102766.25;5028855;28;20594;-75
2023/05/27 03:09:57;;;;;;;155.52;63.25;;;;;;;17.65;52.58;102767.13;5018499;28;20057;-76
2023/05/27 03:12:23;;;;;;;157.57;61.83;;;;;;;17.66;52.35;102774.19;5040810;22;20037;-76
2023/05/27 03:14:49;;;;;;;157.43;61.13;;;;;;;17.67;52.27;102770.66;5016410;28;20064;-77
2023/05/27 03:17:14;;;;;;;158.68;61.70;;;;;;;17.65;52.64;102775.06;5000554;28;20050;-76
2023/05/27 03:19:39;;;;;;;152.68;61.63;;;;;;;17.65;52.62;102769.78;5028823;28;20026;-78
2023/05/27 03:22:06;;;;;;;157.40;62.35;;;;;;;17.65;53.20;102779.50;5034670;28;20029;-77
2023/05/27 03:24:32;;;;;;;155.60;61.63;;;;;;;17.63;52.99;102771.59;5016051;28;20050;-78
2023/05/27 03:26:57;;;;;;;156.15;61.90;;;;;;;17.63;53.15;102761.00;5032259;28;20061;-77
2023/05/27 03:29:22;;;;;;;166.02;65.15;;;;;;;17.63;52.93;102774.22;5031399;28;20113;-78
2023/05/27 03:31:48;;;;;;;159.18;61.33;;;;;;;17.64;53.06;102762.78;5033990;28;20036;-77
2023/05/27 03:34:13;;;;;;;162.93;62.78;;;;;;;17.64;52.77;102767.16;5007614;28;20022;-78
2023/05/27 03:36:38;;;;;;;158.07;61.50;;;;;;;17.63;52.99;102766.31;5018316;28;20030;-78
2023/05/27 03:39:04;;;;;;;154.38;61.72;;;;;;;17.63;52.90;102776.88;4999418;28;20046;-78
2023/05/27 03:41:31;;;;;;;155.45;60.58;;;;;;;17.61;53.39;102773.34;5016000;28;20094;-78
2023/05/27 03:43:56;;;;;;;152.00;60.25;;;;;;;17.60;53.20;102766.34;5009655;28;20534;-77
2023/05/27 03:46:21;;;;;;;152.80;61.05;;;;;;;17.58;53.46;102763.69;4990822;28;20042;-78
2023/05/27 03:48:47;;;;;;;154.45;60.60;;;;;;;17.60;53.03;102766.34;5014555;28;20112;-78
2023/05/27 03:51:12;;;;;;;159.00;62.42;;;;;;;17.59;53.46;102767.22;5016040;28;20053;-77
2023/05/27 03:53:37;;;;;;;158.05;62.63;;;;;;;17.58;53.62;102766.34;5015564;28;20057;-76
2023/05/27 03:56:03;;;;;;;154.43;60.38;;;;;;;17.58;54.01;102773.41;5013245;28;20026;-77
2023/05/27 03:58:28;;;;;;;155.98;61.40;;;;;;;17.56;53.75;102776.06;5013612;28;20014;-76
2023/05/27 04:00:55;;;;;;;155.95;60.05;;;;;;;17.55;54.07;102768.16;5014211;28;20501;-76
2023/05/27 04:03:20;;;;;;;156.07;61.45;;;;;;;17.54;53.81;102772.56;5014615;28;20023;-76
2023/05/27 04:05:45;;;;;;;165.30;62.85;;;;;;;17.55;54.09;102778.75;5011320;28;20088;-76
2023/05/27 04:08:13;;;;;;;153.20;60.83;;;;;;;17.54;53.78;102771.69;4996305;28;20022;-76
2023/05/27 04:10:38;;;;;;;158.60;61.97;;;;;;;17.54;54.09;102771.69;5012679;28;20411;-77
2023/05/27 04:13:04;;;;;;;155.63;60.88;;;;;;;17.54;53.81;102779.63;4995133;28;20022;-78
2023/05/27 04:15:29;;;;;;;160.93;62.40;;;;;;;17.54;54.23;102777.84;4996908;28;20036;-81
2023/05/27 04:17:54;;;;;;;155.38;61.13;;;;;;;17.55;54.32;102776.09;5013670;28;20026;-77
2023/05/27 04:20:20;;;;;;;161.18;63.65;;;;;;;17.55;54.28;102773.44;5013661;28;20383;-79
2023/05/27 04:22:45;;;;;;;153.93;61.97;;;;;;;17.55;54.36;102770.81;5014906;28;20407;-78
2023/05/27 04:25:10;;;;;;;154.80;62.30;;;;;;;17.55;53.89;102773.44;5011682;28;20022;-78
2023/05/27 04:27:39;;;;;;;155.25;60.92;;;;;;;17.56;54.10;102775.16;5012688;28;20061;-78
2023/05/27 04:30:07;;;;;;;150.10;61.08;;;;;;;17.55;54.25;102762.88;4997301;28;20026;-78
2023/05/27 04:32:37;;;;;;;151.90;60.10;;;;;;;17.56;54.27;102767.25;4995360;28;20498;-77
2023/05/27 04:35:09;;;;;;;155.25;61.58;;;;;;;17.55;54.16;102763.75;5013360;28;20450;-78
2023/05/27 04:37:36;;;;;;;147.18;60.53;;;;;;;17.58;54.42;102768.13;4996979;28;20075;-78
2023/05/27 04:40:03;;;;;;;163.02;62.30;;;;;;;17.58;54.05;102765.47;5012733;28;20100;-77
2023/05/27 04:42:29;;;;;;;157.57;61.65;;;;;;;17.58;53.99;102768.97;5014255;28;20034;-79
2023/05/27 04:44:54;;;;;;;154.70;61.05;;;;;;;17.58;53.79;102763.69;5013954;28;20022;-79
2023/05/27 04:47:20;;;;;;;162.80;61.15;;;;;;;17.58;54.52;102755.78;4997193;28;20029;-79
2023/05/27 04:49:47;;;;;;;162.30;62.63;;;;;;;17.61;53.78;102767.22;4997025;28;20530;-79
2023/05/27 04:52:12;;;;;;;167.45;63.42;;;;;;;17.61;54.20;102764.56;5015176;28;20029;-79
2023/05/27 04:54:38;;;;;;;157.98;61.53;;;;;;;17.62;53.69;102769.81;5001706;28;20026;-79
2023/05/27 04:57:03;;;;;;;155.10;60.97;;;;;;;17.61;53.46;102762.78;5013086;28;20029;-79
2023/05/27 05:02:21;;;;;;;166.13;65.13;;;;;;;17.64;53.81;102768.06;4996838;28;20056;-79
2023/05/27 05:04:47;;;;;;;153.97;62.10;;;;;;;17.65;53.49;102769.78;5013966;28;20025;-80
2023/05/27 05:07:12;;;;;;;159.10;63.03;;;;;;;17.66;53.99;102763.59;4996484;28;20567;-79
2023/05/27 05:09:37;;;;;;;150.07;60.60;;;;;;;17.67;53.66;102757.44;5016225;28;20033;-78
2023/05/27 05:12:04;;;;;;;149.02;60.53;;;;;;;17.69;53.59;102760.91;5011530;28;20026;-76
2023/05/27 05:14:30;;;;;;;152.98;63.00;;;;;;;17.69;53.85;102766.19;5013663;28;20029;-77
2023/05/27 05:16:55;;;;;;;154.43;61.58;;;;;;;17.71;54.57;102760.88;4993956;28;20033;-78
2023/05/27 05:19:20;;;;;;;158.75;62.35;;;;;;;17.73;54.40;102765.25;5020395;28;20022;-77
2023/05/27 05:21:46;;;;;;;155.98;61.80;;;;;;;17.76;54.22;102760.84;5011076;28;20117;-76
2023/05/27 05:24:11;;;;;;;173.93;63.75;;;;;;;17.78;54.23;102759.03;5011573;28;20387;-77
2023/05/27 05:26:36;;;;;;;157.35;61.88;;;;;;;17.79;54.57;102755.50;5011032;28;20026;-76
2023/05/27 05:29:01;;;;;;;154.95;61.72;;;;;;;17.82;54.37;102755.47;5016551;28;20034;-76
2023/05/27 05:31:27;;;;;;;155.77;62.85;;;;;;;17.83;54.28;102751.94;5000943;28;20112;-77
2023/05/27 05:33:52;;;;;;;159.02;62.03;;;;;;;17.87;54.21;102748.34;5012114;28;20125;-76
2023/05/27 05:36:18;;;;;;;161.40;62.33;;;;;;;17.90;54.11;102750.94;5010305;28;20021;-77
2023/05/27 05:38:43;;;;;;;153.85;62.03;;;;;;;17.95;53.60;102757.06;5014140;28;20026;-77
2023/05/27 05:41:08;;;;;;;150.65;60.53;;;;;;;17.96;53.75;102757.97;5018312;28;20100;-76
2023/05/27 05:43:34;;;;;;;160.55;62.58;;;;;;;17.97;53.95;102755.28;5011458;28;20476;-76
2023/05/27 05:46:01;;;;;;;150.55;59.63;;;;;;;18.01;53.76;102754.34;5016287;28;20033;-77
2023/05/27 05:48:27;;;;;;;152.07;60.03;;;;;;;18.04;53.69;102766.66;5023936;28;20034;-76
2023/05/27 05:50:52;;;;;;;159.20;62.25;;;;;;;18.07;53.94;102759.53;5004979;28;20029;-77
2023/05/27 05:53:17;;;;;;;160.80;62.80;;;;;;;18.15;53.63;102766.50;5002016;28;20120;-76
2023/05/27 05:55:42;;;;;;;152.73;60.60;;;;;;;18.18;54.04;102763.81;5014306;28;20112;-76
2023/05/27 05:58:08;;;;;;;155.00;61.35;;;;;;;18.20;54.08;102754.94;4999848;28;20022;-78
2023/05/27 06:00:33;;;;;;;150.95;60.83;;;;;;;18.24;53.65;102759.28;5018978;28;20093;-80
2023/05/27 06:02:58;;;;;;;155.48;60.72;;;;;;;18.27;53.35;102761.03;5013621;28;20061;-79
2023/05/27 06:05:25;;;;;;;160.77;62.90;;;;;;;18.32;52.96;102761.78;4998927;28;20022;-80
2023/05/27 06:07:51;;;;;;;153.10;60.88;;;;;;;18.38;52.76;102761.72;5017185;28;20133;-79
2023/05/27 06:10:17;;;;;;;161.68;62.78;;;;;;;18.47;52.69;102759.81;5016312;28;20128;-79
2023/05/27 06:12:42;;;;;;;154.55;61.97;;;;;;;18.53;52.59;102762.38;5001068;28;20545;-79
2023/05/27 06:15:08;;;;;;;149.73;60.60;;;;;;;18.56;52.41;102760.53;5018226;28;20113;-77
2023/05/27 06:17:34;;;;;;;154.65;62.67;;;;;;;18.61;52.38;102752.53;5013009;28;20391;-77
2023/05/27 06:19:59;;;;;;;154.52;60.65;;;;;;;18.67;52.15;102756.84;4999737;28;20406;-78
2023/05/27 06:22:25;;;;;;;150.13;61.30;;;;;;;18.72;52.19;102768.22;5016355;28;20018;-78
2023/05/27 06:24:50;;;;;;;153.63;61.95;;;;;;;18.77;51.56;102752.25;5013816;28;20084;-77
2023/05/27 06:27:15;;;;;;;152.23;62.33;;;;;;;18.81;51.69;102753.94;5015498;28;20021;-78
2023/05/27 06:29:41;;;;;;;154.27;61.63;;;;;;;18.84;51.58;102759.16;4999441;28;20017;-78
2023/05/27 06:32:06;;;;;;;154.43;62.22;;;;;;;18.88;51.74;102758.25;5015067;28;20109;-78
2023/05/27 06:34:31;;;;;;;153.35;60.47;;;;;;;18.91;51.13;102755.56;5016151;28;20049;-78
2023/05/27 06:36:57;;;;;;;160.95;61.40;;;;;;;18.96;51.57;102758.09;5014814;28;20089;-79
2023/05/27 06:39:22;;;;;;;153.48;61.53;;;;;;;18.99;51.40;102760.69;5013657;28;20045;-79
2023/05/27 06:41:48;;;;;;;157.27;62.45;;;;;;;19.01;51.00;102762.41;5015786;28;20395;-76
2023/05/27 06:44:13;;;;;;;176.73;64.70;;;;;;;19.04;50.93;102757.03;4998023;28;20026;-78
2023/05/27 06:46:39;;;;;;;158.75;61.50;;;;;;;19.08;50.60;102745.47;4995372;28;20025;-78
2023/05/27 06:49:04;;;;;;;145.10;59.95;;;;;;;19.11;50.54;102757.81;5002905;28;20026;-78
2023/05/27 06:51:30;;;;;;;151.80;62.05;;;;;;;19.15;50.37;102754.19;4997274;28;20109;-77
2023/05/27 06:53:55;;;;;;;164.50;63.47;;;;;;;19.17;50.47;102751.50;4995510;28;20050;-77
2023/05/27 06:56:20;;;;;;;152.32;61.90;;;;;;;19.20;50.36;102746.16;5016431;28;20029;-77
2023/05/27 06:58:46;;;;;;;160.52;61.28;;;;;;;19.22;50.89;102744.34;5014996;28;20022;-78
2023/05/27 07:01:11;;;;;;;155.55;61.95;;;;;;;19.25;50.27;102733.69;4993108;28;20483;-80
2023/05/27 07:03:37;;;;;;;163.75;62.58;;;;;;;19.27;50.69;102731.88;5009978;28;20022;-78
2023/05/27 07:06:02;;;;;;;154.75;63.67;;;;;;;19.31;50.33;102744.16;5013460;28;20398;-78
2023/05/27 07:08:27;;;;;;;165.40;64.28;;;;;;;19.33;50.42;102737.03;5021301;28;20109;-79
2023/05/27 07:10:53;;;;;;;157.75;63.13;;;;;;;19.38;50.54;102731.66;5011590;28;20083;-77
2023/05/27 07:13:18;;;;;;;154.45;62.63;;;;;;;19.40;50.26;102735.13;5013415;28;20064;-77
2023/05/27 07:15:44;;;;;;;163.63;62.70;;;;;;;19.43;50.06;102735.97;5012252;28;20057;-80
2023/05/27 07:18:09;;;;;;;152.80;61.92;;;;;;;19.47;50.24;102735.88;5013484;28;20018;-79
2023/05/27 07:20:35;;;;;;;157.88;63.17;;;;;;;19.50;50.22;102730.53;5014425;28;20025;-79
2023/05/27 07:23:00;;;;;;;149.20;60.83;;;;;;;19.51;50.08;102734.91;4997783;28;20043;-80
2023/05/27 07:25:26;;;;;;;153.18;61.78;;;;;;;19.54;49.83;102729.56;5014047;28;20510;-77
2023/05/27 07:27:51;;;;;;;155.93;61.83;;;;;;;19.58;49.93;102723.28;5008173;28;20026;-76
2023/05/27 07:30:17;;;;;;;153.13;62.05;;;;;;;19.62;50.23;102727.63;4994932;28;20064;-77
2023/05/27 07:32:42;;;;;;;158.75;63.60;;;;;;;19.64;49.94;102725.78;4995513;28;20522;-79
2023/05/27 07:35:07;;;;;;;153.32;62.35;;;;;;;19.68;49.84;102722.16;5010741;28;20018;-76
2023/05/27 07:37:33;;;;;;;155.30;62.20;;;;;;;19.72;48.50;102729.13;5012705;28;20382;-76
2023/05/27 07:39:58;;;;;;;166.43;63.25;;;;;;;19.78;49.16;102728.13;5008313;28;20036;-78
2023/05/27 07:42:23;;;;;;;151.63;61.65;;;;;;;19.82;48.85;102731.63;4995627;28;20470;-77
2023/05/27 07:44:49;;;;;;;154.63;63.05;;;;;;;19.87;48.91;102735.06;4996385;28;20045;-78
2023/05/27 07:47:15;;;;;;;163.88;62.83;;;;;;;19.91;48.35;102736.72;5016495;28;20025;-79
2023/05/27 07:49:40;;;;;;;168.68;64.40;;;;;;;19.93;48.64;102721.63;4991723;28;20030;-78
2023/05/27 07:52:06;;;;;;;161.07;62.92;;;;;;;19.97;48.33;102723.31;5013613;28;20477;-77
2023/05/27 07:54:31;;;;;;;150.43;60.88;;;;;;;20.02;49.05;102716.13;4992469;28;20034;-75
2023/05/27 07:56:57;;;;;;;167.57;63.42;;;;;;;20.06;48.62;102717.78;5013030;28;20406;-76
2023/05/27 07:59:23;;;;;;;178.68;63.63;;;;;;;20.09;48.94;102717.69;4996409;28;20050;-77
2023/05/27 08:01:48;;;;;;;156.25;62.00;;;;;;;20.14;48.79;102708.75;5013815;28;20056;-77
2023/05/27 08:04:14;;;;;;;170.75;63.97;;;;;;;20.18;48.51;102716.63;4997171;28;20487;-76
2023/05/27 08:06:39;;;;;;;155.65;61.63;;;;;;;20.24;48.19;102715.59;5017694;28;20096;-75
2023/05/27 08:09:04;;;;;;;163.40;63.42;;;;;;;20.26;48.29;102714.66;5012377;28;20026;-76
2023/05/27 08:11:31;;;;;;;150.70;61.80;;;;;;;20.31;48.58;102698.59;5014457;28;20022;-78
2023/05/27 08:13:57;;;;;;;154.18;61.45;;;;;;;20.36;48.76;102690.53;5016872;28;20025;-78
2023/05/27 08:16:22;;;;;;;153.23;61.55;;;;;;;20.39;48.70;102698.41;4995262;28;20031;-78
2023/05/27 08:18:47;;;;;;;149.10;60.85;;;;;;;20.44;48.14;102696.50;5011435;28;20025;-78
2023/05/27 08:21:13;;;;;;;157.02;63.20;;;;;;;20.46;48.63;102688.50;4996370;28;20030;-77
2023/05/27 08:23:38;;;;;;;160.45;62.72;;;;;;;20.49;48.75;102691.97;5014284;28;20546;-76
2023/05/27 08:26:04;;;;;;;154.02;62.10;;;;;;;20.50;49.11;102696.34;5030463;28;20032;-82
2023/05/27 08:28:29;;;;;;;155.88;63.72;;;;;;;20.49;49.24;102683.09;5011483;28;20032;-79
2023/05/27 08:30:54;;;;;;;161.23;63.42;;;;;;;20.51;49.64;102681.31;5011074;28;20045;-80
2023/05/27 08:33:20;;;;;;;170.93;63.88;;;;;;;20.46;49.30;102678.75;5027365;28;20061;-77
2023/05/27 08:35:45;;;;;;;168.18;64.47;;;;;;;20.47;48.86;102679.63;5010886;28;20034;-79
2023/05/27 08:38:11;;;;;;;157.43;61.90;;;;;;;20.47;49.32;102679.63;5027828;28;20052;-79
2023/05/27 08:40:38;;;;;;;155.75;63.60;;;;;;;20.44;49.71;102677.94;5030341;28;20092;-78
2023/05/27 08:43:04;;;;;;;155.13;62.03;;;;;;;20.40;49.48;102674.47;5020387;28;20069;-78
2023/05/27 08:45:31;;;;;;;152.68;61.88;;;;;;;20.36;49.14;102664.84;5019781;28;20380;-78
2023/05/27 08:47:56;;;;;;;154.85;63.15;;;;;;;20.34;49.51;102669.34;5018282;28;20027;-78
2023/05/27 08:50:22;;;;;;;152.93;62.58;;;;;;;20.30;49.91;102667.69;4996802;28;20573;-77
2023/05/27 08:52:52;;;;;;;153.02;60.70;;;;;;;20.27;49.87;102658.03;4995678;28;20121;-76
2023/05/27 08:55:21;;;;;;;167.05;64.82;;;;;;;20.25;50.06;102654.53;4999939;28;20490;-77
2023/05/27 08:57:53;;;;;;;162.80;63.85;;;;;;;20.25;49.81;102656.31;5014661;28;20040;-77
2023/05/27 09:00:19;;;;;;;152.45;62.80;;;;;;;20.18;50.69;102652.06;4999009;28;20446;-75
2023/05/27 09:02:44;;;;;;;160.02;63.05;;;;;;;20.17;50.58;102645.88;4996396;28;20442;-75
2023/05/27 09:05:10;;;;;;;152.95;62.42;;;;;;;20.16;50.75;102649.44;4994450;28;20030;-75
2023/05/27 09:07:37;;;;;;;159.60;62.58;;;;;;;20.14;50.61;102645.97;5010153;28;20513;-75
2023/05/27 09:10:03;;;;;;;155.23;62.55;;;;;;;20.14;51.01;102645.09;5000653;28;20439;-75
2023/05/27 09:12:29;;;;;;;165.25;63.45;;;;;;;20.14;50.34;102640.66;5041637;23;20451;-70
2023/05/27 09:14:54;;;;;;;157.13;63.72;;;;;;;20.13;50.52;102643.38;5027779;28;20171;-70
2023/05/27 09:17:22;;;;;;;154.95;62.10;;;;;;;20.12;50.38;102641.63;5029383;28;20383;-70
2023/05/27 09:19:50;;;;;;;158.32;64.07;;;;;;;20.12;50.28;102646.94;5028690;28;20029;-70
2023/05/27 09:22:23;;;;;;;153.13;62.45;;;;;;;20.13;50.69;102648.69;5012889;28;20507;-70
2023/05/27 09:24:49;;;;;;;159.13;62.58;;;;;;;20.13;50.32;102643.38;5028357;28;20033;-69
2023/05/27 09:27:15;;;;;;;162.02;62.80;;;;;;;20.12;50.37;102637.16;5029488;28;20025;-70
2023/05/27 09:29:41;;;;;;;154.02;63.05;;;;;;;20.11;50.35;102638.09;5030096;28;20103;-69
2023/05/27 09:32:08;;;;;;;157.45;63.17;;;;;;;20.09;50.55;102630.16;5027900;28;20025;-71
2023/05/27 09:34:40;;;;;;;160.68;63.70;;;;;;;20.10;50.69;102625.75;5010751;28;20733;-68
2023/05/27 09:37:05;;;;;;;178.48;65.93;;;;;;;20.09;50.47;102637.25;5007819;28;20602;-69
2023/05/27 09:39:34;;;;;;;159.00;63.90;;;;;;;20.09;50.84;102632.81;5024258;28;20026;-69
2023/05/27 09:42:01;;;;;;;156.60;62.42;;;;;;;20.08;50.85;102625.78;5028419;28;20029;-69
2023/05/27 09:44:40;;;;;;;168.40;64.85;;;;;;;20.08;51.00;102623.13;5029124;28;20426;-69
2023/05/27 09:47:07;;;;;;;157.70;63.50;;;;;;;20.10;51.58;102628.41;5027949;28;20117;-69
2023/05/27 09:49:36;;;;;;;170.50;65.93;;;;;;;20.12;51.51;102620.41;5029357;28;20025;-69
2023/05/27 09:52:02;;;;;;;155.07;63.42;;;;;;;20.11;51.68;102624.84;5027739;28;20099;-68
2023/05/27 09:54:28;;;;;;;159.55;62.63;;;;;;;20.12;50.96;102615.94;5030221;28;20030;-69
2023/05/27 09:56:54;;;;;;;161.07;63.08;;;;;;;20.13;51.29;102616.84;5025327;28;20029;-70
2023/05/27 09:59:19;;;;;;;159.57;62.10;;;;;;;20.12;51.91;102615.09;5037663;28;20102;-69
2023/05/27 10:01:45;;;;;;;161.43;62.80;;;;;;;20.12;51.66;102613.28;5015410;28;20029;-69
2023/05/27 10:04:11;;;;;;;174.85;65.32;;;;;;;20.17;46.28;102615.84;5026383;28;20486;-70
2023/05/27 10:06:37;;;;;;;172.27;67.05;;;;;;;20.27;44.21;102609.38;5022854;28;20036;-72
2023/05/27 10:09:03;;;;;;;222.40;73.55;;;;;;;20.40;46.21;102605.47;5016770;28;20430;-73
2023/05/27 10:11:35;;;;;;;173.40;66.80;;;;;;;20.43;44.93;102592.13;5021118;28;20075;-68
2023/05/27 10:14:01;;;;;;;231.32;72.60;;;;;;;20.58;47.51;102601.44;5009350;28;20028;-70
2023/05/27 10:16:27;;;;;;;213.55;68.35;;;;;;;20.47;44.00;102592.91;5021485;28;20029;-70
2023/05/27 10:18:54;;;;;;;224.88;69.90;;;;;;;20.50;45.67;102594.63;5023143;28;20018;-70
2023/05/27 10:21:20;;;;;;;210.63;77.60;;;;;;;20.46;46.19;102599.13;5020996;28;20112;-69
2023/05/27 10:24:02;;;;;;;214.60;68.30;;;;;;;20.54;44.79;102591.81;5009580;28;20120;-70
2023/05/27 10:26:38;;;;;;;206.15;67.63;;;;;;;20.54;44.90;102586.50;5024933;28;20029;-70
2023/05/27 10:29:11;;;;;;;221.95;70.53;;;;;;;20.50;42.89;102587.50;5015272;28;20034;-70
2023/05/27 10:31:49;;;;;;;213.05;71.85;;;;;;;20.58;44.75;102592.63;5025960;28;20495;-70
2023/05/27 10:34:15;;;;;;;226.55;73.00;;;;;;;20.53;44.27;102594.53;5028236;28;20075;-69
2023/05/27 10:36:40;;;;;;;203.20;70.38;;;;;;;20.55;45.34;102590.91;5025962;28;20041;-69
2023/05/27 10:39:11;;;;;;;205.43;69.30;;;;;;;20.53;45.78;102584.78;5041769;28;20035;-68
2023/05/27 10:41:54;;;;;;;214.60;75.55;;;;;;;20.50;45.73;102581.34;5031728;28;20490;-70
2023/05/27 10:44:32;;;;;;;214.65;71.38;;;;;;;20.49;44.58;102583.13;5021992;28;20037;-70
2023/05/27 10:47:02;;;;;;;210.38;69.55;;;;;;;20.50;44.23;102582.19;5030434;28;20037;-69
2023/05/27 10:49:35;;;;;;;207.70;69.57;;;;;;;20.38;45.34;102580.78;5039441;28;20028;-70
2023/05/27 10:52:05;;;;;;;217.93;70.05;;;;;;;20.45;46.02;102570.88;5026119;28;20365;-69
2023/05/27 10:54:30;;;;;;;203.10;67.35;;;;;;;20.48;45.70;102572.53;5023363;28;20037;-70
2023/05/27 10:56:56;;;;;;;211.43;69.40;;;;;;;20.42;46.13;102571.81;5027795;28;20373;-69
2023/05/27 10:59:22;;;;;;;201.95;67.35;;;;;;;20.48;45.92;102565.47;5008017;28;20191;-70
2023/05/27 11:01:53;;;;;;;200.77;67.88;;;;;;;20.56;43.89;102563.47;5016373;28;20021;-69